Time;durP1;ratioP1;P1;durP2;ratioP2;P2;SDS_P1;SDS_P2;PMS_P1;PMS_P2;Temp;Humidity;BMP_temperature;BMP_pressure;BME280_temperature;BME280_humidity;BME280_pressure;Samples;Min_cycle;Max_cycle;Signal;HPM_P1;HPM_P2
2023/01/29 00:02:00;;;;;;;12.80;6.50;;;;;0.30;97214.00;;;;8279396;28;20242;-74
2023/01/29 00:06:05;;;;;;;9.20;6.13;;;;;0.30;97212.00;;;;8272068;28;20718;-78
2023/01/29 00:10:10;;;;;;;13.40;6.30;;;;;0.30;97194.00;;;;8281745;28;20196;-75
2023/01/29 00:14:13;;;;;;;8.60;6.50;;;;;0.30;97195.00;;;;8283314;28;20194;-74
2023/01/29 00:18:18;;;;;;;14.30;7.10;;;;;0.20;97192.00;;;;8276033;28;20202;-75
2023/01/29 00:22:26;;;;;;;11.67;6.67;;;;;0.20;97194.00;;;;8285546;28;20210;-73
2023/01/29 00:26:32;;;;;;;11.63;7.07;;;;;0.20;97201.00;;;;8286501;28;20623;-76
2023/01/29 00:30:36;;;;;;;11.77;7.23;;;;;0.20;97197.00;;;;8281486;28;20551;-75
2023/01/29 00:34:42;;;;;;;9.73;6.33;;;;;0.10;97194.00;;;;8283192;28;20205;-73
2023/01/29 00:38:53;;;;;;;9.90;6.60;;;;;0.20;97194.00;;;;8280859;28;20206;-78
2023/01/29 00:47:32;;;;;;;9.60;5.57;;;;;0.20;97182.00;;;;8277681;28;20234;-75
2023/01/29 00:51:38;;;;;;;10.13;5.80;;;;;0.20;97183.00;;;;8274062;28;20240;-73
2023/01/29 00:55:41;;;;;;;8.73;5.77;;;;;0.20;97181.00;;;;8286985;28;20595;-76
2023/01/29 00:59:47;;;;;;;10.93;6.10;;;;;0.20;97176.00;;;;8286456;28;20205;-74
2023/01/29 01:03:51;;;;;;;10.90;6.27;;;;;0.30;97174.00;;;;8286642;28;20238;-70
2023/01/29 01:07:58;;;;;;;8.43;4.90;;;;;0.30;97175.00;;;;8284946;28;20233;-71
2023/01/29 01:12:00;;;;;;;9.30;5.97;;;;;0.20;97180.00;;;;8285588;28;20987;-69
2023/01/29 01:16:13;;;;;;;11.37;6.33;;;;;0.20;97179.00;;;;8286571;28;20353;-71
2023/01/29 01:20:17;;;;;;;9.77;6.30;;;;;0.20;97166.00;;;;8276346;28;20205;-69
2023/01/29 01:24:22;;;;;;;11.20;5.83;;;;;0.40;97173.00;;;;8290086;28;20257;-70
2023/01/29 01:28:26;;;;;;;9.13;5.87;;;;;0.50;97179.00;;;;8286067;28;20324;-69
2023/01/29 01:32:29;;;;;;;10.73;5.83;;;;;0.60;97177.00;;;;8287582;28;20204;-69
2023/01/29 01:36:34;;;;;;;10.60;6.00;;;;;0.60;97167.00;;;;8286027;28;20196;-71
2023/01/29 01:40:46;;;;;;;9.57;5.80;;;;;0.70;97164.00;;;;8290813;28;20208;-70
2023/01/29 01:44:57;;;;;;;11.40;6.20;;;;;0.80;97160.00;;;;8287660;28;20366;-70
2023/01/29 01:49:11;;;;;;;12.23;6.10;;;;;0.70;97165.00;;;;8289333;28;20680;-71
2023/01/29 01:53:19;;;;;;;12.23;6.57;;;;;0.60;97146.00;;;;8292653;28;20537;-72
2023/01/29 01:57:25;;;;;;;11.57;6.80;;;;;0.60;97147.00;;;;8286115;28;20871;-69
2023/01/29 02:01:41;;;;;;;8.70;5.83;;;;;0.60;97144.00;;;;8287429;28;20219;-70
2023/01/29 02:10:10;;;;;;;9.60;6.10;;;;;0.60;97163.00;;;;8287758;28;20692;-69
2023/01/29 02:14:21;;;;;;;13.53;7.37;;;;;0.60;97167.00;;;;8287874;28;20210;-71
2023/01/29 02:18:24;;;;;;;10.00;6.27;;;;;0.50;97162.00;;;;8286336;28;20194;-70
2023/01/29 02:22:53;;;;;;;8.20;5.83;;;;;0.50;97162.00;;;;8286869;28;20256;-69
2023/01/29 02:27:06;;;;;;;10.27;6.37;;;;;0.50;97176.00;;;;8284633;28;20695;-70
2023/01/29 02:31:24;;;;;;;11.00;6.37;;;;;0.40;97165.00;;;;8285874;28;20198;-69
2023/01/29 02:35:36;;;;;;;12.37;6.20;;;;;0.40;97178.00;;;;8282039;28;20198;-69
2023/01/29 02:39:45;;;;;;;10.33;5.83;;;;;0.40;97174.00;;;;8284120;28;20298;-70
2023/01/29 02:43:55;;;;;;;8.17;5.30;;;;;0.50;97166.00;;;;8287984;28;20637;-69
2023/01/29 02:48:04;;;;;;;8.47;5.50;;;;;0.60;97177.00;;;;8286726;28;20699;-69
2023/01/29 02:52:15;;;;;;;10.23;5.43;;;;;0.60;97168.00;;;;8281536;28;20195;-69
2023/01/29 02:56:27;;;;;;;7.47;5.43;;;;;0.60;97163.00;;;;8280720;28;20203;-69
2023/01/29 03:00:34;;;;;;;6.03;4.53;;;;;0.60;97167.00;;;;8317477;22;20182;-70
2023/01/29 03:04:46;;;;;;;6.90;4.90;;;;;0.50;97164.00;;;;8295198;22;20321;-69
2023/01/29 03:08:55;;;;;;;4.40;3.57;;;;;0.50;97162.00;;;;8281489;28;20293;-70
2023/01/29 03:13:04;;;;;;;4.77;3.93;;;;;0.50;97164.00;;;;8285393;28;20715;-68
2023/01/29 03:17:10;;;;;;;3.63;3.10;;;;;0.40;97164.00;;;;8284519;28;20280;-70
2023/01/29 03:34:37;;;;;;;3.63;3.33;;;;;0.30;97164.00;;;;8284315;28;20195;-68
2023/01/29 03:38:42;;;;;;;4.43;3.53;;;;;0.20;97161.00;;;;8288210;28;20284;-68
2023/01/29 03:42:57;;;;;;;3.60;3.27;;;;;0.20;97174.00;;;;8283241;28;20238;-70
2023/01/29 03:47:12;;;;;;;3.93;3.50;;;;;0.10;97177.00;;;;8285567;28;20665;-68
2023/01/29 03:51:23;;;;;;;4.20;3.53;;;;;0.20;97189.00;;;;8283719;28;20365;-69
2023/01/29 03:55:36;;;;;;;4.97;3.90;;;;;0.10;97198.00;;;;8282250;28;20221;-69
2023/01/29 03:59:49;;;;;;;5.30;3.90;;;;;0.10;97198.00;;;;8279421;28;20204;-69
2023/01/29 04:03:59;;;;;;;4.07;3.67;;;;;0.10;97198.00;;;;8280746;28;20227;-69
2023/01/29 04:08:16;;;;;;;3.93;3.47;;;;;0.00;97194.00;;;;8286939;28;20256;-71
2023/01/29 04:12:26;;;;;;;6.07;4.03;;;;;0.00;97194.00;;;;8285090;28;20556;-68
2023/01/29 04:16:37;;;;;;;5.30;3.73;;;;;0.00;97185.00;;;;8286637;28;20199;-68
2023/01/29 04:20:43;;;;;;;4.20;3.67;;;;;0.00;97185.00;;;;8285626;28;20221;-69
2023/01/29 04:24:47;;;;;;;6.17;4.03;;;;;0.00;97190.00;;;;8281453;28;20226;-68
2023/01/29 04:29:15;;;;;;;6.00;4.60;;;;;-0.10;97200.00;;;;8283618;28;20441;-70
2023/01/29 04:33:31;;;;;;;4.50;4.10;;;;;-0.20;97187.00;;;;8283411;28;20202;-69
2023/01/29 04:37:44;;;;;;;5.67;3.83;;;;;-0.20;97193.00;;;;8285803;28;20528;-69
2023/01/29 04:41:55;;;;;;;8.20;4.13;;;;;-0.10;97189.00;;;;8311168;28;20194;-69
2023/01/29 04:46:14;;;;;;;5.20;4.10;;;;;-0.10;97201.00;;;;8290634;28;20201;-69
2023/01/29 04:50:28;;;;;;;6.10;4.10;;;;;-0.10;97208.00;;;;8306460;28;20225;-69
2023/01/29 04:54:50;;;;;;;5.00;4.20;;;;;-0.10;97197.00;;;;8282638;28;20199;-69
2023/01/29 04:58:58;;;;;;;5.77;4.33;;;;;-0.10;97200.00;;;;8297853;28;20271;-69
2023/01/29 05:03:06;;;;;;;6.30;4.83;;;;;-0.10;97191.00;;;;8271887;28;20235;-69
2023/01/29 05:07:13;;;;;;;5.83;4.40;;;;;-0.20;97184.00;;;;8273600;28;20242;-70
2023/01/29 05:11:20;;;;;;;5.60;4.57;;;;;-0.30;97168.00;;;;8267455;28;20223;-71
2023/01/29 05:15:25;;;;;;;5.30;4.20;;;;;-0.40;97171.00;;;;8273391;28;20198;-71
2023/01/29 05:19:30;;;;;;;7.60;4.23;;;;;-0.40;97163.00;;;;8263365;28;20249;-70
2023/01/29 05:23:33;;;;;;;4.30;3.90;;;;;-0.40;97166.00;;;;8270717;28;20199;-70
2023/01/29 05:31:58;;;;;;;6.37;4.70;;;;;-0.40;97164.00;;;;8268349;28;20206;-70
2023/01/29 05:36:02;;;;;;;5.83;4.70;;;;;-0.30;97162.00;;;;8274549;28;20208;-70
2023/01/29 05:40:12;;;;;;;10.63;4.57;;;;;-0.30;97171.00;;;;8265318;28;20229;-72
2023/01/29 05:44:16;;;;;;;4.90;4.40;;;;;-0.30;97174.00;;;;8278167;28;20194;-70
2023/01/29 05:48:19;;;;;;;6.57;4.77;;;;;-0.30;97190.00;;;;8269373;28;20226;-69
2023/01/29 05:52:30;;;;;;;8.93;5.70;;;;;-0.40;97188.00;;;;8279615;28;22314;-70
2023/01/29 05:56:33;;;;;;;9.80;5.83;;;;;-0.40;97177.00;;;;8273184;28;20611;-70
2023/01/29 06:00:36;;;;;;;9.67;5.67;;;;;-0.40;97179.00;;;;8269687;28;20222;-69
2023/01/29 06:04:40;;;;;;;7.43;5.30;;;;;-0.40;97176.00;;;;8264938;28;20227;-71
2023/01/29 06:08:44;;;;;;;9.37;5.80;;;;;-0.40;97164.00;;;;8272888;28;20285;-72
2023/01/29 06:12:49;;;;;;;8.53;6.03;;;;;-0.40;97147.00;;;;8275035;28;20202;-70
2023/01/29 06:16:52;;;;;;;8.50;5.47;;;;;-0.40;97147.00;;;;8270168;28;20333;-71
2023/01/29 06:21:02;;;;;;;8.50;5.37;;;;;-0.40;97143.00;;;;8269634;28;20233;-70
2023/01/29 06:25:12;;;;;;;9.07;6.07;;;;;-0.50;97131.00;;;;8278276;28;20711;-70
2023/01/29 06:29:18;;;;;;;7.80;5.37;;;;;-0.50;97130.00;;;;8275787;28;21115;-70
2023/01/29 06:33:24;;;;;;;8.73;5.47;;;;;-0.50;97127.00;;;;8272776;28;21188;-71
2023/01/29 06:37:27;;;;;;;8.17;5.80;;;;;-0.50;97137.00;;;;8288138;28;20229;-70
2023/01/29 06:41:32;;;;;;;9.90;5.87;;;;;-0.50;97128.00;;;;8285767;28;20277;-69
2023/01/29 06:45:35;;;;;;;10.03;5.70;;;;;-0.50;97144.00;;;;8284722;28;20240;-70
2023/01/29 06:49:41;;;;;;;10.97;6.23;;;;;-0.50;97156.00;;;;8280109;28;20253;-70
2023/01/29 06:53:44;;;;;;;11.00;6.80;;;;;-0.50;97154.00;;;;8277614;28;20289;-70
2023/01/29 06:57:50;;;;;;;12.73;6.20;;;;;-0.60;97158.00;;;;8277890;28;20199;-68
2023/01/29 07:01:53;;;;;;;11.00;6.17;;;;;-0.70;97157.00;;;;8285708;28;20263;-69
2023/01/29 07:06:00;;;;;;;9.00;6.60;;;;;-0.70;97170.00;;;;8274005;28;20234;-69
2023/01/29 07:10:04;;;;;;;8.97;6.27;;;;;-0.60;97180.00;;;;8263361;28;20816;-69
2023/01/29 07:14:09;;;;;;;9.77;6.43;;;;;-0.60;97181.00;;;;8276472;28;20204;-68
2023/01/29 07:18:14;;;;;;;10.77;6.67;;;;;-0.50;97185.00;;;;8273673;28;20206;-71
2023/01/29 07:22:22;;;;;;;9.57;6.87;;;;;-0.50;97183.00;;;;8278465;28;20225;-71
2023/01/29 07:26:26;;;;;;;10.10;6.60;;;;;-0.50;97179.00;;;;8286633;28;20204;-70
2023/01/29 07:30:31;;;;;;;11.03;7.07;;;;;-0.50;97173.00;;;;8281516;28;20312;-71
2023/01/29 07:34:34;;;;;;;11.57;6.83;;;;;-0.50;97177.00;;;;8279385;28;20211;-71
2023/01/29 07:38:37;;;;;;;18.50;7.93;;;;;-0.50;97186.00;;;;8276998;28;20194;-71
2023/01/29 07:42:42;;;;;;;11.60;7.40;;;;;-0.50;97189.00;;;;8279908;28;20248;-69
2023/01/29 07:46:47;;;;;;;10.23;6.67;;;;;-0.40;97185.00;;;;8275408;28;21126;-70
2023/01/29 07:50:57;;;;;;;12.67;7.63;;;;;-0.40;97191.00;;;;8282157;28;20317;-69
2023/01/29 07:55:00;;;;;;;12.60;6.97;;;;;-0.30;97186.00;;;;8283010;28;20647;-71
2023/01/29 07:59:03;;;;;;;11.37;7.57;;;;;-0.20;97194.00;;;;8281510;28;20221;-70
2023/01/29 08:03:12;;;;;;;12.57;7.83;;;;;-0.20;97194.00;;;;8283590;28;20229;-70
2023/01/29 08:07:15;;;;;;;11.97;7.43;;;;;-0.10;97206.00;;;;8279885;28;20252;-70
2023/01/29 08:11:18;;;;;;;14.17;7.73;;;;;0.00;97211.00;;;;8282231;28;20283;-71
2023/01/29 08:15:21;;;;;;;15.17;8.40;;;;;-0.10;97219.00;;;;8283336;28;20206;-70
2023/01/29 08:19:26;;;;;;;12.87;7.70;;;;;0.00;97228.00;;;;8278786;28;20212;-71
2023/01/29 08:23:29;;;;;;;14.53;7.80;;;;;0.00;97219.00;;;;8292852;28;20250;-69
2023/01/29 08:27:36;;;;;;;13.63;8.17;;;;;0.20;97215.00;;;;8283173;28;20268;-71
2023/01/29 08:31:40;;;;;;;11.23;7.93;;;;;0.30;97218.00;;;;8282289;28;21068;-70
2023/01/29 08:35:50;;;;;;;17.30;8.10;;;;;0.30;97231.00;;;;8277583;28;20204;-71
2023/01/29 08:39:53;;;;;;;9.40;6.63;;;;;0.30;97234.00;;;;8271985;28;20213;-70
2023/01/29 08:44:01;;;;;;;11.17;7.10;;;;;0.30;97239.00;;;;8280298;28;20218;-70
2023/01/29 08:48:08;;;;;;;11.13;7.67;;;;;0.40;97246.00;;;;8285004;28;20198;-71
2023/01/29 08:52:13;;;;;;;11.50;7.23;;;;;0.40;97249.00;;;;8283504;28;20234;-70
2023/01/29 08:56:16;;;;;;;12.73;8.07;;;;;0.30;97260.00;;;;8274482;28;20716;-70
2023/01/29 09:00:20;;;;;;;12.13;7.93;;;;;0.20;97260.00;;;;8282025;28;20256;-77
2023/01/29 09:04:23;;;;;;;11.73;7.97;;;;;0.20;97268.00;;;;8280252;28;20223;-71
2023/01/29 09:08:28;;;;;;;14.53;8.40;;;;;0.20;97269.00;;;;8273720;28;20198;-71
2023/01/29 09:12:31;;;;;;;44.90;22.93;;;;;0.30;97265.00;;;;8281700;28;20228;-71
2023/01/29 09:16:36;;;;;;;182.57;75.13;;;;;0.30;97268.00;;;;8286492;28;20206;-71
2023/01/29 09:20:40;;;;;;;17.27;11.60;;;;;0.40;97260.00;;;;8282736;28;20191;-71
2023/01/29 09:24:44;;;;;;;20.83;12.97;;;;;0.40;97249.00;;;;8281465;28;20291;-74
2023/01/29 09:28:49;;;;;;;34.53;23.30;;;;;0.50;97248.00;;;;8282652;28;20214;-71
2023/01/29 09:32:52;;;;;;;18.90;11.30;;;;;0.70;97253.00;;;;8285780;28;20228;-71
2023/01/29 09:36:59;;;;;;;39.33;19.53;;;;;0.90;97259.00;;;;8281474;28;20272;-72
2023/01/29 09:41:15;;;;;;;10.67;7.70;;;;;1.00;97252.00;;;;8281179;28;20202;-75
2023/01/29 09:45:28;;;;;;;16.80;11.07;;;;;1.00;97243.00;;;;8283501;28;20208;-72
2023/01/29 09:49:36;;;;;;;26.33;15.23;;;;;1.30;97235.00;;;;8283313;28;20204;-72
2023/01/29 09:53:45;;;;;;;20.90;11.47;;;;;1.40;97233.00;;;;8285518;28;20657;-70
2023/01/29 09:57:56;;;;;;;19.47;10.63;;;;;1.50;97218.00;;;;8284084;28;20215;-70
2023/01/29 10:02:08;;;;;;;11.47;7.73;;;;;1.80;97215.00;;;;8279069;28;20200;-70
2023/01/29 10:06:31;;;;;;;26.40;16.27;;;;;2.00;97224.00;;;;8283261;28;20246;-71
2023/01/29 10:10:45;;;;;;;21.53;15.73;;;;;2.00;97217.00;;;;8281245;28;20238;-70
2023/01/29 10:15:08;;;;;;;15.73;9.70;;;;;2.00;97215.00;;;;8271958;28;20203;-70
2023/01/29 10:19:37;;;;;;;12.13;7.63;;;;;1.80;97210.00;;;;8282234;28;20607;-70
2023/01/29 10:23:47;;;;;;;12.57;9.10;;;;;1.90;97209.00;;;;8287830;28;20208;-71
2023/01/29 10:27:53;;;;;;;146.20;106.33;;;;;2.00;97211.00;;;;8278855;28;20203;-72
2023/01/29 10:32:04;;;;;;;12.20;8.60;;;;;1.90;97213.00;;;;8286383;28;20216;-74
2023/01/29 10:36:13;;;;;;;17.50;9.77;;;;;1.70;97211.00;;;;8283038;28;20259;-73
2023/01/29 10:40:20;;;;;;;13.13;7.93;;;;;1.70;97209.00;;;;8262421;28;20203;-73
2023/01/29 10:44:35;;;;;;;13.47;8.30;;;;;1.60;97193.00;;;;8279629;28;20253;-75
2023/01/29 10:48:54;;;;;;;19.40;10.47;;;;;1.70;97192.00;;;;8278499;28;20202;-73
2023/01/29 10:53:17;;;;;;;18.37;10.20;;;;;2.00;97183.00;;;;8275410;28;20222;-72
2023/01/29 10:57:38;;;;;;;16.40;9.30;;;;;2.10;97184.00;;;;8280130;28;20204;-72
2023/01/29 11:01:41;;;;;;;15.77;9.13;;;;;2.30;97172.00;;;;8284695;28;20198;-72
2023/01/29 11:05:53;;;;;;;62.87;26.00;;;;;2.50;97160.00;;;;8281989;28;20269;-72
2023/01/29 11:10:02;;;;;;;12.07;8.30;;;;;2.50;97177.00;;;;8273061;28;20686;-75
2023/01/29 11:14:11;;;;;;;21.23;14.00;;;;;2.40;97165.00;;;;8273020;28;20258;-75
2023/01/29 11:18:14;;;;;;;14.43;8.37;;;;;2.50;97160.00;;;;8280714;28;20209;-74
2023/01/29 11:22:25;;;;;;;13.30;8.73;;;;;2.50;97172.00;;;;8268622;28;20824;-73
2023/01/29 11:26:35;;;;;;;13.57;8.80;;;;;2.50;97182.00;;;;8266304;28;20900;-73
2023/01/29 11:30:41;;;;;;;11.53;8.10;;;;;2.30;97173.00;;;;8279166;28;20233;-74
2023/01/29 11:34:58;;;;;;;9.67;7.07;;;;;1.90;97171.00;;;;8267407;28;20214;-73
2023/01/29 11:39:21;;;;;;;13.03;8.20;;;;;1.90;97145.00;;;;8269023;28;20264;-73
2023/01/29 11:43:34;;;;;;;12.80;8.37;;;;;2.00;97126.00;;;;8277290;28;20208;-74
2023/01/29 11:47:37;;;;;;;11.50;7.97;;;;;2.20;97123.00;;;;8276443;28;20733;-74
2023/01/29 11:51:41;;;;;;;13.63;9.13;;;;;2.50;97122.00;;;;8274503;28;20789;-73
2023/01/29 11:55:50;;;;;;;24.63;14.67;;;;;2.60;97117.00;;;;8279394;28;20205;-73
2023/01/29 12:00:00;;;;;;;18.67;11.03;;;;;2.70;97107.00;;;;8276776;28;20313;-72
2023/01/29 12:04:19;;;;;;;15.60;8.97;;;;;2.70;97090.00;;;;8279606;28;20229;-72
2023/01/29 12:08:23;;;;;;;10.67;8.43;;;;;2.50;97095.00;;;;8276097;28;20205;-72
2023/01/29 12:12:34;;;;;;;12.73;8.10;;;;;2.50;97103.00;;;;8278951;28;20809;-72
2023/01/29 12:16:47;;;;;;;12.23;7.97;;;;;2.60;97083.00;;;;8275149;28;20240;-72
2023/01/29 12:20:58;;;;;;;13.10;8.03;;;;;2.80;97082.00;;;;8276237;28;20259;-72
2023/01/29 12:25:07;;;;;;;11.47;7.60;;;;;3.00;97079.00;;;;8274703;28;20228;-73
2023/01/29 12:29:25;;;;;;;14.70;7.57;;;;;3.00;97089.00;;;;8271022;28;20260;-72
2023/01/29 12:33:41;;;;;;;13.03;7.73;;;;;3.00;97083.00;;;;8270384;28;20229;-72
2023/01/29 12:37:52;;;;;;;13.43;7.90;;;;;3.00;97069.00;;;;8274751;28;20204;-72
2023/01/29 12:41:59;;;;;;;13.93;8.83;;;;;2.70;97061.00;;;;8273298;28;20196;-72
2023/01/29 12:46:08;;;;;;;12.73;8.40;;;;;2.50;97053.00;;;;8279705;28;20540;-72
2023/01/29 12:50:20;;;;;;;12.93;8.30;;;;;2.50;97065.00;;;;8288935;28;20200;-72
2023/01/29 12:54:32;;;;;;;11.10;7.57;;;;;2.50;97051.00;;;;8288368;28;20207;-72
2023/01/29 12:58:47;;;;;;;13.83;7.57;;;;;2.50;97048.00;;;;8286606;28;20207;-72
2023/01/29 13:02:57;;;;;;;11.20;7.20;;;;;2.50;97034.00;;;;8286926;28;20610;-72
2023/01/29 13:07:09;;;;;;;11.50;7.40;;;;;2.40;97030.00;;;;8285882;28;20680;-72
2023/01/29 13:11:21;;;;;;;13.67;9.07;;;;;2.40;97019.00;;;;8288437;28;20267;-72
2023/01/29 13:15:32;;;;;;;14.60;8.27;;;;;2.30;97027.00;;;;8284994;28;20204;-72
2023/01/29 13:19:42;;;;;;;14.03;8.30;;;;;2.20;97024.00;;;;8288269;28;20251;-72
2023/01/29 13:23:48;;;;;;;12.27;7.53;;;;;2.30;97027.00;;;;8289288;28;20227;-72
2023/01/29 13:27:55;;;;;;;13.73;8.50;;;;;2.30;97021.00;;;;8287641;28;20829;-72
2023/01/29 13:32:00;;;;;;;13.57;8.33;;;;;2.30;97017.00;;;;8280364;28;20339;-71
2023/01/29 13:36:15;;;;;;;12.53;7.30;;;;;2.20;97009.00;;;;8276638;28;20252;-72
2023/01/29 13:40:24;;;;;;;12.67;7.70;;;;;2.10;97013.00;;;;8278778;28;20233;-72
2023/01/29 13:44:29;;;;;;;11.77;7.70;;;;;2.20;97023.00;;;;8283219;28;20259;-72
2023/01/29 13:48:41;;;;;;;12.80;7.93;;;;;2.20;97033.00;;;;8280881;28;20258;-72
2023/01/29 13:52:52;;;;;;;13.43;8.20;;;;;2.00;97042.00;;;;8277616;28;20227;-72
2023/01/29 13:57:00;;;;;;;16.67;7.87;;;;;2.00;97038.00;;;;8281105;28;20684;-72
2023/01/29 14:01:04;;;;;;;16.60;7.83;;;;;2.00;97043.00;;;;8268088;28;20621;-71
2023/01/29 14:05:42;;;;;;;11.67;7.07;;;;;2.00;97023.00;;;;8280518;28;20239;-72
2023/01/29 14:10:12;;;;;;;12.40;7.97;;;;;1.80;97018.00;;;;8277492;28;20208;-72
2023/01/29 14:15:01;;;;;;;11.37;7.23;;;;;1.80;97007.00;;;;8279716;28;20243;-72
2023/01/29 14:19:19;;;;;;;17.83;7.83;;;;;1.90;97006.00;;;;8280262;28;20247;-72
2023/01/29 14:23:29;;;;;;;12.83;8.47;;;;;2.00;96991.00;;;;8281483;28;20205;-71
2023/01/29 14:27:36;;;;;;;12.07;7.57;;;;;2.00;96990.00;;;;8278131;28;20203;-72
2023/01/29 14:31:49;;;;;;;14.27;8.00;;;;;1.70;96993.00;;;;8272966;28;20223;-74
2023/01/29 14:35:55;;;;;;;13.17;8.10;;;;;1.70;96998.00;;;;8271050;28;20200;-72
2023/01/29 14:40:09;;;;;;;12.67;7.70;;;;;1.70;97000.00;;;;8282755;28;20207;-72
2023/01/29 14:44:48;;;;;;;15.13;8.40;;;;;1.60;96996.00;;;;8299062;28;20229;-72
2023/01/29 14:48:53;;;;;;;13.13;8.07;;;;;1.50;96996.00;;;;8300648;28;20252;-73
2023/01/29 14:53:10;;;;;;;13.00;7.83;;;;;1.50;97001.00;;;;8300757;28;20228;-72
2023/01/29 14:57:19;;;;;;;13.37;8.33;;;;;1.50;96988.00;;;;8301714;28;20201;-72
2023/01/29 15:01:25;;;;;;;11.63;7.30;;;;;1.40;96981.00;;;;8300697;28;21145;-73
2023/01/29 15:05:36;;;;;;;14.43;7.70;;;;;1.30;96978.00;;;;8296741;28;20733;-73
2023/01/29 15:09:47;;;;;;;12.00;7.93;;;;;1.20;96969.00;;;;8297411;28;20249;-73
2023/01/29 15:13:55;;;;;;;11.43;6.90;;;;;1.10;96965.00;;;;8300083;28;20223;-72
2023/01/29 15:18:08;;;;;;;12.60;7.53;;;;;0.90;96972.00;;;;8299497;28;20187;-73
2023/01/29 15:22:14;;;;;;;11.13;7.00;;;;;0.70;96971.00;;;;8365877;28;20210;-73
2023/01/29 15:26:19;;;;;;;14.27;8.30;;;;;0.40;96965.00;;;;8365073;28;20585;-73
2023/01/29 15:30:29;;;;;;;14.30;8.20;;;;;0.30;96956.00;;;;8365792;28;20376;-80
2023/01/29 15:34:32;;;;;;;14.83;8.70;;;;;0.20;96957.00;;;;8365123;28;20224;-74
2023/01/29 15:38:36;;;;;;;14.50;7.90;;;;;0.10;96960.00;;;;8365666;28;20190;-74
2023/01/29 15:42:47;;;;;;;12.93;7.87;;;;;0.00;96967.00;;;;8365581;28;20202;-73
2023/01/29 15:46:56;;;;;;;12.83;7.47;;;;;-0.10;96958.00;;;;8363925;28;20202;-73
2023/01/29 15:51:03;;;;;;;14.70;8.03;;;;;-0.10;96969.00;;;;8358128;28;20622;-73
2023/01/29 15:55:14;;;;;;;13.10;8.17;;;;;-0.20;96952.00;;;;8365207;28;20628;-73
2023/01/29 15:59:22;;;;;;;12.47;7.70;;;;;-0.40;96955.00;;;;8362102;28;20203;-73
2023/01/29 16:03:33;;;;;;;13.60;8.00;;;;;-0.40;96959.00;;;;8362543;28;20248;-72
2023/01/29 16:07:37;;;;;;;14.23;7.63;;;;;-0.50;96961.00;;;;8364194;28;20193;-72
2023/01/29 16:11:42;;;;;;;11.90;7.57;;;;;-0.60;96955.00;;;;8364162;28;20200;-72
2023/01/29 16:15:55;;;;;;;14.43;8.03;;;;;-0.60;96957.00;;;;8363654;28;20196;-72
2023/01/29 16:20:02;;;;;;;12.83;7.50;;;;;-0.70;96950.00;;;;8364052;28;20193;-71
2023/01/29 16:24:10;;;;;;;13.50;7.53;;;;;-0.80;96948.00;;;;8364102;28;20200;-72
2023/01/29 16:28:16;;;;;;;16.07;8.37;;;;;-0.80;96955.00;;;;8363705;28;20181;-73
2023/01/29 16:32:28;;;;;;;16.50;8.13;;;;;-0.80;96949.00;;;;8362944;28;20681;-73
2023/01/29 16:36:31;;;;;;;13.97;8.23;;;;;-0.80;96952.00;;;;8363317;28;20224;-73
2023/01/29 16:40:36;;;;;;;16.07;8.40;;;;;-0.80;96952.00;;;;8360965;28;20232;-73
2023/01/29 16:44:48;;;;;;;22.67;9.27;;;;;-0.80;96948.00;;;;8363199;28;20188;-72
2023/01/29 16:48:54;;;;;;;17.30;8.63;;;;;-0.80;96949.00;;;;8363167;28;20205;-76
2023/01/29 16:53:02;;;;;;;14.93;7.70;;;;;-0.70;96958.00;;;;8363398;28;20609;-74
2023/01/29 16:57:05;;;;;;;16.53;9.30;;;;;-0.70;96966.00;;;;8364521;28;20185;-75
2023/01/29 17:01:11;;;;;;;13.70;8.20;;;;;-0.60;96968.00;;;;8362577;28;20266;-76
2023/01/29 17:05:22;;;;;;;18.30;8.90;;;;;-0.50;96956.00;;;;8364086;28;20228;-75
2023/01/29 17:09:29;;;;;;;16.37;9.30;;;;;-0.50;96950.00;;;;8364614;28;20248;-76
2023/01/29 17:13:42;;;;;;;14.23;8.27;;;;;-0.50;96952.00;;;;8363970;28;20557;-77
2023/01/29 17:17:55;;;;;;;19.43;10.47;;;;;-0.50;96957.00;;;;8363172;28;20271;-76
2023/01/29 17:22:03;;;;;;;26.70;12.30;;;;;-0.40;96959.00;;;;8364009;28;20522;-76
2023/01/29 17:26:15;;;;;;;24.33;11.93;;;;;-0.40;96953.00;;;;8363556;28;20204;-76
2023/01/29 17:30:22;;;;;;;24.87;12.37;;;;;-0.40;96959.00;;;;8363513;28;20199;-77
2023/01/29 17:34:27;;;;;;;21.03;10.27;;;;;-0.50;96955.00;;;;8369290;28;20212;-77
2023/01/29 17:38:30;;;;;;;23.80;10.30;;;;;-0.70;96966.00;;;;8369240;28;20240;-78
2023/01/29 17:42:39;;;;;;;21.63;11.60;;;;;-0.80;96973.00;;;;8369265;28;20189;-77
2023/01/29 17:46:48;;;;;;;19.30;10.13;;;;;-1.00;96964.00;;;;8368270;28;20205;-78
2023/01/29 17:50:57;;;;;;;24.87;12.20;;;;;-1.10;96954.00;;;;8367580;28;20189;-78
2023/01/29 17:55:04;;;;;;;24.10;12.30;;;;;-1.20;96960.00;;;;8351034;28;20278;-77
2023/01/29 17:59:16;;;;;;;27.93;14.03;;;;;-1.30;96955.00;;;;8369213;28;20240;-78
2023/01/29 18:03:21;;;;;;;22.07;11.70;;;;;-1.50;96958.00;;;;8368057;28;20332;-79
2023/01/29 18:07:27;;;;;;;35.97;16.87;;;;;-1.60;96955.00;;;;8368365;28;20573;-78
2023/01/29 18:11:31;;;;;;;161.57;61.73;;;;;-1.60;96949.00;;;;8367402;28;20197;-79
2023/01/29 18:15:35;;;;;;;91.53;44.43;;;;;-1.60;96946.00;;;;8368208;28;20542;-80
2023/01/29 18:19:40;;;;;;;150.93;70.43;;;;;-1.60;96936.00;;;;8367062;28;20184;-80
2023/01/29 18:23:46;;;;;;;76.77;31.63;;;;;-1.70;96933.00;;;;8367711;28;20530;-80
2023/01/29 18:27:52;;;;;;;1012.17;295.53;;;;;-1.80;96920.00;;;;8349319;28;20299;-81
2023/01/29 18:32:00;;;;;;;656.07;175.73;;;;;-1.80;96917.00;;;;8367990;28;20581;-81
2023/01/29 18:36:06;;;;;;;1999.90;669.07;;;;;-1.80;96918.00;;;;8367644;28;20221;-83
2023/01/29 18:40:15;;;;;;;621.87;192.73;;;;;-1.80;96918.00;;;;8367141;28;20197;-82
2023/01/29 18:44:19;;;;;;;1999.90;469.50;;;;;-1.80;96919.00;;;;8365845;28;20248;-83
2023/01/29 18:48:25;;;;;;;1296.63;451.03;;;;;-1.80;96920.00;;;;8366252;28;20251;-83
2023/01/29 18:52:28;;;;;;;179.67;92.30;;;;;-1.70;96919.00;;;;8366620;28;20200;-85
2023/01/29 18:56:36;;;;;;;64.70;30.50;;;;;-1.60;96917.00;;;;8366913;28;20534;-84
2023/01/29 19:01:07;;;;;;;63.07;30.23;;;;;-1.70;96919.00;;;;8366709;28;20196;-85
2023/01/29 19:05:11;;;;;;;34.97;16.87;;;;;-1.70;96916.00;;;;8366910;28;20696;-84
2023/01/29 19:09:15;;;;;;;27.97;13.03;;;;;-1.80;96928.00;;;;8366575;28;20291;-85
2023/01/29 19:13:19;;;;;;;24.43;11.53;;;;;-1.80;96930.00;;;;8367486;28;20230;-84
2023/01/29 19:17:25;;;;;;;20.67;10.77;;;;;-2.00;96915.00;;;;8366465;28;20193;-86
2023/01/29 19:21:34;;;;;;;23.53;10.20;;;;;-2.10;96923.00;;;;8365462;28;20283;-87
2023/01/29 19:25:38;;;;;;;23.53;10.53;;;;;-2.10;96922.00;;;;8364659;28;20231;-88
2023/01/29 19:29:42;;;;;;;22.20;10.43;;;;;-2.10;96931.00;;;;8364772;28;20251;-88
2023/01/29 19:33:45;;;;;;;21.73;10.53;;;;;-2.00;96931.00;;;;8365616;28;20284;-84
2023/01/29 19:37:52;;;;;;;24.30;10.93;;;;;-1.90;96931.00;;;;8363503;28;20209;-82
2023/01/29 19:41:55;;;;;;;21.20;10.93;;;;;-1.80;96928.00;;;;8362069;28;20192;-80
2023/01/29 19:46:03;;;;;;;21.90;10.93;;;;;-1.60;96933.00;;;;8346923;28;20515;-82
2023/01/29 19:50:15;;;;;;;21.90;11.00;;;;;-1.40;96943.00;;;;8365191;28;20648;-87
2023/01/29 19:54:22;;;;;;;24.80;10.77;;;;;-1.40;96937.00;;;;8365162;28;20220;-82
2023/01/29 19:58:25;;;;;;;25.53;10.83;;;;;-1.20;96937.00;;;;8364768;28;20197;-83
2023/01/29 20:02:34;;;;;;;24.23;11.83;;;;;-1.10;96940.00;;;;8364683;28;20310;-88
2023/01/29 20:06:37;;;;;;;31.77;13.03;;;;;-0.90;96934.00;;;;8365070;28;20193;-86
2023/01/29 20:10:45;;;;;;;26.83;13.07;;;;;-0.80;96921.00;;;;8364764;28;20622;-83
2023/01/29 20:14:49;;;;;;;24.03;11.47;;;;;-0.80;96916.00;;;;8364275;28;20224;-81
2023/01/29 20:18:54;;;;;;;22.60;11.33;;;;;-0.90;96916.00;;;;8365325;28;20511;-81
2023/01/29 20:23:19;;;;;;;26.43;11.93;;;;;-0.90;96920.00;;;;8364131;28;20200;-81
2023/01/29 20:27:38;;;;;;;28.87;12.83;;;;;-0.80;96917.00;;;;8365708;28;20295;-81
2023/01/29 20:31:41;;;;;;;28.97;12.90;;;;;-0.80;96903.00;;;;8364794;28;20193;-78
2023/01/29 20:35:52;;;;;;;24.93;12.07;;;;;-0.80;96898.00;;;;8365011;28;20220;-80
2023/01/29 20:39:57;;;;;;;27.20;12.27;;;;;-0.70;96894.00;;;;8363721;28;20197;-82
2023/01/29 20:44:00;;;;;;;26.67;12.83;;;;;-0.70;96900.00;;;;8365525;28;20197;-81
2023/01/29 20:48:03;;;;;;;29.97;12.70;;;;;-0.60;96896.00;;;;8363629;28;20248;-83
2023/01/29 20:52:10;;;;;;;26.00;12.73;;;;;-0.50;96882.00;;;;8364002;28;20235;-84
2023/01/29 20:56:14;;;;;;;28.13;12.70;;;;;-0.50;96876.00;;;;8363302;28;20224;-81
2023/01/29 21:00:21;;;;;;;28.30;13.23;;;;;-0.70;96870.00;;;;8364897;28;20200;-80
2023/01/29 21:04:30;;;;;;;28.23;14.20;;;;;-0.80;96863.00;;;;8363852;28;20275;-77